Time;durP1;ratioP1;P1;durP2;ratioP2;P2;SDS_P1;SDS_P2;PMS_P1;PMS_P2;Temp;Humidity;BMP_temperature;BMP_pressure;BME280_temperature;BME280_humidity;BME280_pressure;Samples;Min_cycle;Max_cycle;Signal;HPM_P1;HPM_P2
2023/01/16 00:00:09;;;;;;;6.40;2.28;;;;;;;;;;5067714;28;20098;-71
2023/01/16 00:02:35;;;;;;;5.28;2.42;;;;;;;;;;5066137;28;20147;-70
2023/01/16 00:05:02;;;;;;;4.60;2.20;;;;;;;;;;5068598;28;20057;-70
2023/01/16 00:07:28;;;;;;;3.63;2.22;;;;;;;;;;5068154;28;20080;-70
2023/01/16 00:09:55;;;;;;;8.95;2.55;;;;;;;;;;5068498;28;20052;-70
2023/01/16 00:12:21;;;;;;;3.63;2.40;;;;;;;;;;5069179;28;20060;-70
2023/01/16 00:14:47;;;;;;;2.97;2.20;;;;;;;;;;5068858;28;20512;-71
2023/01/16 00:17:13;;;;;;;7.85;2.40;;;;;;;;;;5066179;28;20585;-70
2023/01/16 00:19:40;;;;;;;4.85;2.30;;;;;;;;;;5069310;28;20080;-69
2023/01/16 00:22:06;;;;;;;8.18;3.08;;;;;;;;;;5066656;28;20404;-70
2023/01/16 00:24:33;;;;;;;7.97;3.05;;;;;;;;;;5068660;28;20131;-71
2023/01/16 00:26:59;;;;;;;9.25;3.58;;;;;;;;;;5068216;28;20102;-71
2023/01/16 00:29:25;;;;;;;6.47;4.00;;;;;;;;;;5067346;28;20060;-70
2023/01/16 00:31:51;;;;;;;6.05;3.05;;;;;;;;;;5068149;28;20053;-68
2023/01/16 00:34:18;;;;;;;7.57;3.28;;;;;;;;;;5067054;28;20052;-70
2023/01/16 00:36:45;;;;;;;4.90;3.05;;;;;;;;;;5064918;28;20061;-70
2023/01/16 00:39:11;;;;;;;7.57;3.92;;;;;;;;;;5065457;28;20060;-70
2023/01/16 00:41:37;;;;;;;4.72;3.28;;;;;;;;;;5067079;28;20053;-70
2023/01/16 00:44:04;;;;;;;6.60;3.63;;;;;;;;;;5066000;28;20520;-70
2023/01/16 00:46:30;;;;;;;6.80;3.15;;;;;;;;;;5067495;28;20057;-70
2023/01/16 00:48:57;;;;;;;8.10;3.75;;;;;;;;;;5066002;28;20056;-70
2023/01/16 00:51:23;;;;;;;5.00;3.15;;;;;;;;;;5064678;28;20543;-70
2023/01/16 00:53:49;;;;;;;5.32;3.45;;;;;;;;;;5067966;28;20049;-69
2023/01/16 00:56:16;;;;;;;4.65;3.67;;;;;;;;;;5066985;28;20057;-69
2023/01/16 00:58:42;;;;;;;6.50;4.15;;;;;;;;;;5068697;28;20080;-69
2023/01/16 01:01:09;;;;;;;8.35;4.80;;;;;;;;;;5067616;28;20080;-69
2023/01/16 01:03:36;;;;;;;7.22;4.70;;;;;;;;;;5068854;28;20057;-70
2023/01/16 01:06:06;;;;;;;9.90;5.18;;;;;;;;;;5064515;28;20542;-70
2023/01/16 01:08:32;;;;;;;8.48;5.13;;;;;;;;;;5066383;28;20534;-70
2023/01/16 01:11:05;;;;;;;8.63;5.50;;;;;;;;;;5065882;28;20060;-69
2023/01/16 01:13:31;;;;;;;10.07;5.43;;;;;;;;;;5066988;28;20045;-68
2023/01/16 01:15:57;;;;;;;11.60;6.93;;;;;;;;;;5067101;28;20063;-70
2023/01/16 01:18:23;;;;;;;9.93;6.30;;;;;;;;;;5064327;28;20053;-70
2023/01/16 01:20:50;;;;;;;10.63;6.78;;;;;;;;;;5066660;28;20041;-70
2023/01/16 01:23:16;;;;;;;10.02;7.20;;;;;;;;;;5067105;28;20056;-70
2023/01/16 01:25:42;;;;;;;13.45;6.78;;;;;;;;;;5063049;28;20060;-69
2023/01/16 01:28:09;;;;;;;14.25;7.60;;;;;;;;;;5048925;28;20053;-69
2023/01/16 01:30:36;;;;;;;11.73;7.15;;;;;;;;;;5057513;28;20053;-69
2023/01/16 01:33:03;;;;;;;12.43;6.90;;;;;;;;;;5067372;28;20041;-70
2023/01/16 01:35:29;;;;;;;22.15;7.97;;;;;;;;;;5066788;28;20056;-70
2023/01/16 01:37:55;;;;;;;13.75;8.23;;;;;;;;;;5066565;28;20053;-70
2023/01/16 01:40:21;;;;;;;12.50;7.30;;;;;;;;;;5065115;28;20053;-70
2023/01/16 01:42:51;;;;;;;10.52;7.65;;;;;;;;;;5063586;28;20060;-69
2023/01/16 01:45:25;;;;;;;20.92;9.18;;;;;;;;;;5064562;28;20049;-70
2023/01/16 01:47:51;;;;;;;12.98;8.15;;;;;;;;;;5063978;28;20133;-70
2023/01/16 01:50:29;;;;;;;13.07;8.70;;;;;;;;;;5063964;28;20068;-70
2023/01/16 01:52:57;;;;;;;17.48;8.93;;;;;;;;;;5066619;28;20067;-69
2023/01/16 01:55:23;;;;;;;14.52;8.60;;;;;;;;;;5050545;28;20427;-70
2023/01/16 01:57:54;;;;;;;14.68;8.02;;;;;;;;;;5066126;28;20522;-69
2023/01/16 02:00:23;;;;;;;14.10;7.95;;;;;;;;;;5065831;28;20512;-70
2023/01/16 02:02:55;;;;;;;11.75;7.82;;;;;;;;;;5064178;28;20489;-70
2023/01/16 02:05:28;;;;;;;12.50;7.22;;;;;;;;;;5063180;28;20652;-70
2023/01/16 02:07:55;;;;;;;10.70;6.70;;;;;;;;;;5065663;28;20068;-70
2023/01/16 02:10:29;;;;;;;13.43;7.07;;;;;;;;;;5062294;28;20545;-71
2023/01/16 02:12:57;;;;;;;14.10;7.78;;;;;;;;;;5050288;28;20592;-69
2023/01/16 02:15:23;;;;;;;15.13;7.45;;;;;;;;;;5059589;28;20053;-69
2023/01/16 02:20:57;;;;;;;16.65;8.25;;;;;;;;;;5065410;28;20049;-69
2023/01/16 02:23:24;;;;;;;13.20;7.03;;;;;;;;;;5068378;28;20061;-70
2023/01/16 02:26:09;;;;;;;11.77;7.50;;;;;;;;;;5069323;28;20131;-69
2023/01/16 02:28:46;;;;;;;14.33;7.00;;;;;;;;;;5069344;28;20041;-69
2023/01/16 02:31:31;;;;;;;12.32;6.97;;;;;;;;;;5068443;28;20318;-68
2023/01/16 02:34:01;;;;;;;12.60;6.63;;;;;;;;;;5070074;28;20060;-70
2023/01/16 02:36:33;;;;;;;8.40;5.57;;;;;;;;;;5069112;28;20127;-69
2023/01/16 02:39:22;;;;;;;8.45;5.95;;;;;;;;;;5067793;28;20060;-70
2023/01/16 02:41:50;;;;;;;10.15;5.55;;;;;;;;;;5049833;28;20050;-69
2023/01/16 02:44:23;;;;;;;11.15;5.70;;;;;;;;;;5065422;28;20518;-69
2023/01/16 02:47:16;;;;;;;6.57;4.72;;;;;;;;;;5068712;28;20057;-70
2023/01/16 02:49:46;;;;;;;15.07;5.72;;;;;;;;;;5068650;28;20076;-70
2023/01/16 02:52:17;;;;;;;8.30;5.68;;;;;;;;;;5070667;28;20057;-69
2023/01/16 02:54:58;;;;;;;7.10;4.80;;;;;;;;;;5069422;28;20052;-70
2023/01/16 02:57:29;;;;;;;6.47;4.75;;;;;;;;;;5068015;28;20499;-70
2023/01/16 02:59:56;;;;;;;7.75;5.18;;;;;;;;;;5067913;28;20199;-70
2023/01/16 03:02:22;;;;;;;7.65;4.60;;;;;;;;;;5067892;28;20535;-69
2023/01/16 03:04:49;;;;;;;4.47;3.47;;;;;;;;;;5068342;28;20063;-70
2023/01/16 03:07:34;;;;;;;8.95;4.55;;;;;;;;;;5069012;28;20056;-70
2023/01/16 03:10:19;;;;;;;5.05;3.80;;;;;;;;;;5067480;28;20412;-71
2023/01/16 03:12:55;;;;;;;7.23;3.30;;;;;;;;;;5060625;28;20560;-71
2023/01/16 03:15:21;;;;;;;;;;;;;;;;;;5067065;28;20128;-70
2023/01/16 03:17:51;;;;;;;4.65;3.08;;;;;;;;;;5067956;28;46152;-71
2023/01/16 03:20:20;;;;;;;5.40;3.10;;;;;;;;;;5068794;28;20772;-70
2023/01/16 03:23:02;;;;;;;7.75;3.03;;;;;;;;;;5060353;28;20057;-70
2023/01/16 03:25:38;;;;;;;8.57;3.28;;;;;;;;;;5059695;28;20062;-71
2023/01/16 03:28:16;;;;;;;6.75;2.85;;;;;;;;;;5049042;28;20449;-71
2023/01/16 03:30:47;;;;;;;9.95;3.35;;;;;;;;;;5067721;28;20060;-69
2023/01/16 03:33:19;;;;;;;4.45;2.70;;;;;;;;;;5068141;28;20985;-70
2023/01/16 03:35:54;;;;;;;8.63;2.50;;;;;;;;;;5066236;28;20045;-69
2023/01/16 03:38:22;;;;;;;6.40;2.95;;;;;;;;;;5050370;28;20052;-71
2023/01/16 03:40:50;;;;;;;4.22;2.30;;;;;;;;;;5062074;28;20492;-69
2023/01/16 03:43:28;;;;;;;5.25;2.33;;;;;;;;;;5066541;28;20049;-70
2023/01/16 03:45:58;;;;;;;5.57;2.38;;;;;;;;;;5063880;28;20049;-70
2023/01/16 03:48:42;;;;;;;5.40;2.67;;;;;;;;;;5048213;28;20057;-70
2023/01/16 03:51:12;;;;;;;4.43;2.67;;;;;;;;;;5061848;28;22035;-70
2023/01/16 03:53:41;;;;;;;8.02;2.05;;;;;;;;;;5066751;28;20055;-69
2023/01/16 03:56:07;;;;;;;6.20;2.20;;;;;;;;;;5068673;28;20145;-70
2023/01/16 03:58:48;;;;;;;3.92;2.05;;;;;;;;;;5066381;28;20052;-70
2023/01/16 04:01:32;;;;;;;8.98;2.40;;;;;;;;;;5067695;28;20056;-70
2023/01/16 04:04:10;;;;;;;6.05;2.17;;;;;;;;;;5066853;28;20080;-70
2023/01/16 04:06:55;;;;;;;7.07;2.35;;;;;;;;;;5064303;28;20057;-71
2023/01/16 04:09:26;;;;;;;3.20;2.30;;;;;;;;;;5067604;28;20581;-70
2023/01/16 04:11:53;;;;;;;9.50;2.25;;;;;;;;;;5068881;28;20049;-71
2023/01/16 04:14:21;;;;;;;7.85;2.40;;;;;;;;;;5063894;28;20064;-70
2023/01/16 04:16:48;;;;;;;4.47;1.70;;;;;;;;;;5058212;28;20049;-71
2023/01/16 04:19:15;;;;;;;10.50;4.22;;;;;;;;;;5066745;28;20045;-70
2023/01/16 04:21:45;;;;;;;11.40;2.60;;;;;;;;;;5068240;28;20060;-70
2023/01/16 04:24:11;;;;;;;8.38;1.55;;;;;;;;;;5067527;28;20052;-70
2023/01/16 04:26:38;;;;;;;11.82;2.85;;;;;;;;;;5067628;28;20050;-69
2023/01/16 04:29:04;;;;;;;6.15;1.60;;;;;;;;;;5068569;28;20045;-70
2023/01/16 04:31:30;;;;;;;8.48;2.38;;;;;;;;;;5067891;28;20068;-71
2023/01/16 04:33:57;;;;;;;6.22;1.83;;;;;;;;;;5067839;28;20053;-71
2023/01/16 04:36:23;;;;;;;10.10;2.20;;;;;;;;;;5066891;28;20053;-70
2023/01/16 04:38:50;;;;;;;5.65;1.63;;;;;;;;;;5068389;28;20049;-70
2023/01/16 04:41:35;;;;;;;3.97;1.80;;;;;;;;;;5063785;28;21048;-70
2023/01/16 04:44:02;;;;;;;3.95;1.90;;;;;;;;;;5047784;28;20053;-70
2023/01/16 04:46:29;;;;;;;5.80;2.10;;;;;;;;;;5054264;28;20041;-70
2023/01/16 04:48:55;;;;;;;7.63;2.03;;;;;;;;;;5067375;28;20049;-70
2023/01/16 04:51:21;;;;;;;2.38;1.50;;;;;;;;;;5067706;28;20049;-70
2023/01/16 04:53:48;;;;;;;6.45;2.10;;;;;;;;;;5050417;28;20652;-70
2023/01/16 04:56:14;;;;;;;6.47;2.03;;;;;;;;;;5065439;28;20053;-70
2023/01/16 04:58:40;;;;;;;5.53;1.83;;;;;;;;;;5068674;28;20655;-70
2023/01/16 05:01:07;;;;;;;8.15;1.98;;;;;;;;;;5066476;28;20064;-70
2023/01/16 05:03:33;;;;;;;5.85;2.35;;;;;;;;;;5067188;28;20059;-70
2023/01/16 05:05:59;;;;;;;4.70;1.98;;;;;;;;;;5067455;28;20049;-68
2023/01/16 05:08:28;;;;;;;10.02;2.22;;;;;;;;;;5065964;28;20045;-70
2023/01/16 05:10:54;;;;;;;4.18;2.45;;;;;;;;;;5064319;28;20046;-69
2023/01/16 05:13:21;;;;;;;6.28;2.08;;;;;;;;;;5068287;28;20052;-70
2023/01/16 05:15:47;;;;;;;9.60;1.80;;;;;;;;;;5067251;28;20503;-70
2023/01/16 05:18:13;;;;;;;3.75;1.45;;;;;;;;;;5066904;28;20464;-69
2023/01/16 05:20:40;;;;;;;5.40;1.77;;;;;;;;;;5067070;28;20053;-70
2023/01/16 05:23:09;;;;;;;2.88;1.65;;;;;;;;;;5062081;28;20141;-70
2023/01/16 05:25:35;;;;;;;3.03;1.48;;;;;;;;;;5058404;28;20049;-69
2023/01/16 05:28:02;;;;;;;4.32;1.45;;;;;;;;;;5066914;28;20526;-70
2023/01/16 05:30:28;;;;;;;6.35;2.00;;;;;;;;;;5054692;28;20048;-69
2023/01/16 05:32:55;;;;;;;5.85;2.08;;;;;;;;;;5047525;28;20168;-69
2023/01/16 05:35:21;;;;;;;10.23;2.08;;;;;;;;;;5064021;28;20053;-69
2023/01/16 05:37:47;;;;;;;5.47;2.05;;;;;;;;;;5063280;28;20045;-70
2023/01/16 05:40:13;;;;;;;5.15;1.77;;;;;;;;;;5055781;28;20163;-69
2023/01/16 05:42:43;;;;;;;3.47;2.00;;;;;;;;;;5069695;28;20053;-70
2023/01/16 05:45:10;;;;;;;8.00;2.45;;;;;;;;;;5056123;28;20049;-70
2023/01/16 05:47:36;;;;;;;7.03;2.15;;;;;;;;;;5063563;28;20591;-69
2023/01/16 05:50:03;;;;;;;8.18;2.15;;;;;;;;;;5051493;28;20163;-70
2023/01/16 05:52:29;;;;;;;3.85;1.67;;;;;;;;;;5063927;28;20533;-69
2023/01/16 05:54:56;;;;;;;6.63;2.05;;;;;;;;;;5065338;28;20056;-69
2023/01/16 05:57:22;;;;;;;6.80;2.03;;;;;;;;;;5064862;28;20072;-69
2023/01/16 05:59:49;;;;;;;5.18;1.60;;;;;;;;;;5060518;28;20057;-70
2023/01/16 06:02:19;;;;;;;4.97;1.73;;;;;;;;;;5066195;28;20056;-70
2023/01/16 06:04:46;;;;;;;10.80;1.80;;;;;;;;;;5066266;28;20055;-69
2023/01/16 06:07:13;;;;;;;3.70;1.60;;;;;;;;;;5066929;28;20267;-68
2023/01/16 06:09:39;;;;;;;6.68;1.52;;;;;;;;;;5071723;28;20056;-70
2023/01/16 06:12:08;;;;;;;6.32;1.92;;;;;;;;;;5063713;28;20056;-69
2023/01/16 06:14:35;;;;;;;3.67;1.67;;;;;;;;;;5055209;28;20049;-70
2023/01/16 06:17:01;;;;;;;6.82;2.00;;;;;;;;;;5066469;28;20057;-71
2023/01/16 06:19:28;;;;;;;8.77;2.38;;;;;;;;;;5060692;28;20099;-71
2023/01/16 06:21:54;;;;;;;12.75;2.42;;;;;;;;;;5046225;28;20057;-71
2023/01/16 06:24:21;;;;;;;16.05;3.00;;;;;;;;;;5059808;28;20045;-70
2023/01/16 06:26:47;;;;;;;5.07;2.38;;;;;;;;;;5078170;28;20503;-70
2023/01/16 06:29:13;;;;;;;10.27;2.00;;;;;;;;;;5066550;28;20060;-69
2023/01/16 06:31:39;;;;;;;4.18;2.05;;;;;;;;;;5068986;28;20568;-70
2023/01/16 06:34:06;;;;;;;3.90;1.75;;;;;;;;;;5071960;28;20485;-70
2023/01/16 06:36:32;;;;;;;6.03;1.77;;;;;;;;;;5065967;28;20056;-69
2023/01/16 06:38:58;;;;;;;5.88;1.85;;;;;;;;;;5065839;28;20515;-69
2023/01/16 06:41:25;;;;;;;4.80;1.90;;;;;;;;;;5073264;28;20143;-69
2023/01/16 06:43:51;;;;;;;8.18;2.17;;;;;;;;;;5063475;28;20053;-69
2023/01/16 06:46:17;;;;;;;5.97;2.40;;;;;;;;;;5056390;28;20055;-70
2023/01/16 06:48:44;;;;;;;7.00;1.83;;;;;;;;;;5062352;28;20072;-69
2023/01/16 06:51:10;;;;;;;5.47;2.20;;;;;;;;;;5061776;28;20124;-69
2023/01/16 06:53:36;;;;;;;5.03;1.88;;;;;;;;;;5062123;28;20063;-69
2023/01/16 06:56:03;;;;;;;6.45;1.95;;;;;;;;;;5057976;28;20087;-70
2023/01/16 06:58:29;;;;;;;6.40;2.28;;;;;;;;;;5060729;28;20052;-69
2023/01/16 07:00:56;;;;;;;2.95;1.83;;;;;;;;;;5069510;28;20095;-69
2023/01/16 07:03:22;;;;;;;6.05;2.03;;;;;;;;;;5073105;28;20080;-69
2023/01/16 07:05:48;;;;;;;8.07;2.30;;;;;;;;;;5078412;28;20106;-69
2023/01/16 07:08:15;;;;;;;6.63;1.75;;;;;;;;;;5062696;28;20060;-69
2023/01/16 07:10:41;;;;;;;3.13;2.13;;;;;;;;;;5062421;28;20083;-69
2023/01/16 07:13:09;;;;;;;6.40;1.85;;;;;;;;;;5074754;28;20145;-70
2023/01/16 07:24:16;;;;;;;5.97;1.90;;;;;;;;;;5046804;28;20342;-70
2023/01/16 07:26:44;;;;;;;10.68;1.95;;;;;;;;;;5055660;28;20076;-68
2023/01/16 07:29:10;;;;;;;4.88;1.52;;;;;;;;;;5064635;28;20072;-69
2023/01/16 07:31:37;;;;;;;2.88;1.70;;;;;;;;;;5065156;28;20466;-69
2023/01/16 07:34:03;;;;;;;2.47;1.65;;;;;;;;;;5066182;28;20095;-69
2023/01/16 07:36:30;;;;;;;6.05;1.63;;;;;;;;;;5062587;28;20136;-69
2023/01/16 07:38:56;;;;;;;5.55;1.70;;;;;;;;;;5074470;28;20047;-69
2023/01/16 07:41:23;;;;;;;4.35;1.80;;;;;;;;;;5075044;28;20133;-70
2023/01/16 07:43:49;;;;;;;3.58;1.42;;;;;;;;;;5065731;28;20053;-68
2023/01/16 07:46:16;;;;;;;6.97;1.50;;;;;;;;;;5076106;28;20041;-68
2023/01/16 07:48:42;;;;;;;3.53;1.80;;;;;;;;;;5081011;28;20148;-69
2023/01/16 07:51:09;;;;;;;2.15;1.63;;;;;;;;;;5058108;28;20069;-68
2023/01/16 07:53:35;;;;;;;4.50;1.90;;;;;;;;;;5063230;28;20055;-70
2023/01/16 07:56:01;;;;;;;8.85;2.30;;;;;;;;;;5065583;28;20045;-69
2023/01/16 07:58:28;;;;;;;6.28;2.17;;;;;;;;;;5066094;28;20080;-69
2023/01/16 08:00:55;;;;;;;5.10;2.08;;;;;;;;;;5063727;28;20610;-69
2023/01/16 08:03:23;;;;;;;3.88;2.20;;;;;;;;;;5060396;28;20061;-69
2023/01/16 08:05:50;;;;;;;2.97;2.10;;;;;;;;;;5054583;28;20298;-68
2023/01/16 08:08:16;;;;;;;4.47;2.08;;;;;;;;;;5066773;28;20049;-69
2023/01/16 08:10:43;;;;;;;3.20;1.88;;;;;;;;;;5052288;28;20141;-68
2023/01/16 08:13:09;;;;;;;4.72;2.33;;;;;;;;;;5064693;28;20049;-69
2023/01/16 08:15:35;;;;;;;5.00;2.72;;;;;;;;;;5065226;28;20056;-68
2023/01/16 08:18:02;;;;;;;6.97;2.90;;;;;;;;;;5065035;28;20167;-69
2023/01/16 08:20:28;;;;;;;4.15;3.05;;;;;;;;;;5061405;28;20063;-69
2023/01/16 08:22:56;;;;;;;4.85;2.40;;;;;;;;;;5064888;28;20064;-69
2023/01/16 08:25:23;;;;;;;3.88;2.45;;;;;;;;;;5054296;28;20092;-68
2023/01/16 08:27:50;;;;;;;7.07;2.80;;;;;;;;;;5064189;28;20057;-69
2023/01/16 08:30:17;;;;;;;4.55;2.80;;;;;;;;;;5049312;28;20049;-69
2023/01/16 08:32:45;;;;;;;2.70;2.50;;;;;;;;;;5062836;28;20045;-69
2023/01/16 08:35:11;;;;;;;5.90;3.75;;;;;;;;;;5064133;28;20056;-68
2023/01/16 08:37:38;;;;;;;6.38;3.05;;;;;;;;;;5064236;28;20080;-69
2023/01/16 08:40:05;;;;;;;5.32;2.72;;;;;;;;;;5064158;28;20056;-68
2023/01/16 08:53:32;;;;;;;7.93;3.03;;;;;;;;;;5065290;28;20884;-69
2023/01/16 08:55:59;;;;;;;7.18;2.55;;;;;;;;;;5062415;28;20513;-69
2023/01/16 08:58:25;;;;;;;4.90;2.60;;;;;;;;;;5064501;28;20124;-69
2023/01/16 09:00:52;;;;;;;6.88;2.67;;;;;;;;;;5063170;28;20084;-68
2023/01/16 09:03:18;;;;;;;4.22;2.47;;;;;;;;;;5063772;28;20111;-68
2023/01/16 09:05:44;;;;;;;3.45;2.67;;;;;;;;;;5056053;28;20056;-69
2023/01/16 09:08:11;;;;;;;4.50;2.60;;;;;;;;;;5071171;28;20057;-68
2023/01/16 09:10:37;;;;;;;3.42;2.50;;;;;;;;;;5056129;28;20085;-69
2023/01/16 09:15:49;;;;;;;5.35;2.72;;;;;;;;;;5068978;28;20059;-69
2023/01/16 09:18:15;;;;;;;3.58;2.17;;;;;;;;;;5062429;28;20248;-68
2023/01/16 09:20:42;;;;;;;3.67;2.10;;;;;;;;;;5066173;28;20071;-69
2023/01/16 09:23:08;;;;;;;6.75;2.42;;;;;;;;;;5063397;28;20110;-69
2023/01/16 09:25:34;;;;;;;4.32;2.30;;;;;;;;;;5077894;28;20051;-68
2023/01/16 09:28:01;;;;;;;7.07;2.78;;;;;;;;;;5069871;28;20060;-70
2023/01/16 09:30:27;;;;;;;2.55;2.35;;;;;;;;;;5064427;28;20186;-69
2023/01/16 09:32:54;;;;;;;4.85;2.72;;;;;;;;;;5054068;28;20085;-68
2023/01/16 09:35:20;;;;;;;6.43;3.10;;;;;;;;;;5063936;28;20324;-69
2023/01/16 09:37:46;;;;;;;4.10;2.70;;;;;;;;;;5062074;28;20132;-70
2023/01/16 09:40:17;;;;;;;6.35;3.10;;;;;;;;;;5063482;28;20419;-67
2023/01/16 09:45:33;;;;;;;7.22;2.90;;;;;;;;;;5062984;28;20526;-69
2023/01/16 09:48:01;;;;;;;8.63;4.25;;;;;;;;;;5062336;28;20064;-68
2023/01/16 09:50:45;;;;;;;3.15;2.38;;;;;;;;;;5058229;28;20471;-69
2023/01/16 09:59:13;;;;;;;4.63;2.85;;;;;;;;;;5058625;28;20065;-70
2023/01/16 10:01:42;;;;;;;6.65;3.25;;;;;;;;;;5058317;28;20495;-70
2023/01/16 10:04:20;;;;;;;4.00;3.00;;;;;;;;;;5049184;28;20061;-70
2023/01/16 10:06:55;;;;;;;5.70;3.45;;;;;;;;;;5045938;28;20056;-70
2023/01/16 10:09:29;;;;;;;5.57;3.33;;;;;;;;;;5063534;28;20062;-68
2023/01/16 10:11:56;;;;;;;4.20;3.13;;;;;;;;;;5064599;28;20135;-69
2023/01/16 10:14:51;;;;;;;8.10;3.40;;;;;;;;;;5060522;28;20052;-69
2023/01/16 10:17:17;;;;;;;8.70;3.15;;;;;;;;;;5058385;28;20057;-70
2023/01/16 10:19:50;;;;;;;3.83;3.00;;;;;;;;;;5061961;28;20083;-70
2023/01/16 10:22:16;;;;;;;2.65;2.45;;;;;;;;;;5063809;28;20056;-69
2023/01/16 10:24:55;;;;;;;3.85;2.50;;;;;;;;;;5073867;28;20144;-68
2023/01/16 10:27:32;;;;;;;4.05;2.38;;;;;;;;;;5084086;28;20056;-69
2023/01/16 10:30:05;;;;;;;4.28;2.35;;;;;;;;;;5083723;28;20044;-70
2023/01/16 10:32:31;;;;;;;3.03;2.65;;;;;;;;;;5069983;28;20048;-69
2023/01/16 10:35:04;;;;;;;4.60;2.50;;;;;;;;;;5061066;28;20050;-70
2023/01/16 10:37:32;;;;;;;3.25;2.33;;;;;;;;;;5058976;28;20071;-68
2023/01/16 10:40:00;;;;;;;4.45;2.20;;;;;;;;;;5062370;28;20064;-68
2023/01/16 10:51:06;;;;;;;6.95;1.98;;;;;;;;;;5067838;28;20533;-70
2023/01/16 10:53:34;;;;;;;4.00;1.63;;;;;;;;;;5069104;28;20045;-71
2023/01/16 10:56:01;;;;;;;2.15;1.20;;;;;;;;;;5066328;28;20048;-69
2023/01/16 10:58:37;;;;;;;3.97;1.90;;;;;;;;;;5068706;28;20996;-70
2023/01/16 11:01:06;;;;;;;2.30;1.30;;;;;;;;;;5066622;28;20070;-69
2023/01/16 11:03:39;;;;;;;1.65;1.35;;;;;;;;;;5074009;28;20506;-69
2023/01/16 11:06:07;;;;;;;2.63;1.40;;;;;;;;;;5076154;28;20052;-68
2023/01/16 11:08:35;;;;;;;5.22;1.60;;;;;;;;;;5082238;28;20081;-69
2023/01/16 11:11:01;;;;;;;3.85;1.70;;;;;;;;;;5069964;28;20081;-68
2023/01/16 11:19:15;;;;;;;1.75;1.63;;;;;;;;;;5065775;28;20434;-69
2023/01/16 11:21:42;;;;;;;2.17;1.20;;;;;;;;;;5066914;28;20063;-68
2023/01/16 11:24:17;;;;;;;5.13;1.60;;;;;;;;;;5066309;28;20064;-68
2023/01/16 11:26:46;;;;;;;1.50;1.40;;;;;;;;;;5064116;28;20041;-69
2023/01/16 11:29:15;;;;;;;2.33;1.50;;;;;;;;;;5067963;28;20056;-67
2023/01/16 11:31:47;;;;;;;1.55;1.45;;;;;;;;;;5068474;28;20053;-70
2023/01/16 11:34:14;;;;;;;1.80;1.48;;;;;;;;;;5067685;28;20048;-68
2023/01/16 11:36:42;;;;;;;2.03;1.50;;;;;;;;;;5069014;28;20060;-69
2023/01/16 11:39:17;;;;;;;3.22;1.75;;;;;;;;;;5067938;28;20060;-68
2023/01/16 11:41:45;;;;;;;3.53;1.50;;;;;;;;;;5067445;28;20825;-69
2023/01/16 11:47:15;;;;;;;2.78;1.73;;;;;;;;;;5065658;28;20053;-70
2023/01/16 11:49:46;;;;;;;3.97;2.40;;;;;;;;;;5081288;28;20059;-70
2023/01/16 11:52:13;;;;;;;2.80;1.73;;;;;;;;;;5087120;28;20545;-70
2023/01/16 11:54:40;;;;;;;2.47;1.75;;;;;;;;;;5086118;28;20063;-69
2023/01/16 11:57:06;;;;;;;2.55;1.92;;;;;;;;;;5070785;28;20060;-70
2023/01/16 11:59:43;;;;;;;1.65;1.50;;;;;;;;;;5063969;28;20056;-68
2023/01/16 12:02:28;;;;;;;2.80;2.38;;;;;;;;;;5063352;28;20589;-70
2023/01/16 12:07:45;;;;;;;2.38;2.03;;;;;;;;;;5044419;28;20554;-69
2023/01/16 12:10:21;;;;;;;3.25;2.00;;;;;;;;;;5059938;28;20048;-70
2023/01/16 12:15:54;;;;;;;2.45;1.70;;;;;;;;;;5058070;28;45078;-68
2023/01/16 12:18:29;;;;;;;4.07;2.20;;;;;;;;;;5050061;28;20132;-69
2023/01/16 12:21:03;;;;;;;4.68;2.25;;;;;;;;;;5043607;28;20485;-69
2023/01/16 12:23:45;;;;;;;2.10;1.58;;;;;;;;;;5063974;28;20322;-70
2023/01/16 12:26:43;;;;;;;3.20;2.00;;;;;;;;;;5060823;28;20122;-71
2023/01/16 12:29:09;;;;;;;2.55;2.05;;;;;;;;;;5060822;28;20493;-69
2023/01/16 12:31:37;;;;;;;5.07;2.42;;;;;;;;;;5063795;28;20051;-71
2023/01/16 12:34:04;;;;;;;3.13;1.98;;;;;;;;;;5064238;28;20553;-69
2023/01/16 12:36:55;;;;;;;3.22;2.03;;;;;;;;;;5065059;28;20554;-70
2023/01/16 12:39:40;;;;;;;6.57;2.00;;;;;;;;;;5040087;28;20053;-69
2023/01/16 12:45:31;;;;;;;2.97;1.90;;;;;;;;;;5039232;28;20571;-70
2023/01/16 12:48:07;;;;;;;1.90;1.58;;;;;;;;;;5039575;28;20077;-70
2023/01/16 12:50:46;;;;;;;1.80;1.60;;;;;;;;;;5040774;28;20112;-68
2023/01/16 12:53:33;;;;;;;3.65;1.98;;;;;;;;;;5038936;28;20053;-70
2023/01/16 12:56:10;;;;;;;3.67;1.95;;;;;;;;;;5034188;28;20390;-69
2023/01/16 12:58:45;;;;;;;3.58;2.40;;;;;;;;;;5041074;28;20618;-71
2023/01/16 13:01:24;;;;;;;2.08;1.88;;;;;;;;;;5040046;28;20084;-69
2023/01/16 13:03:53;;;;;;;2.85;2.17;;;;;;;;;;5040507;28;20056;-70
2023/01/16 13:06:24;;;;;;;3.70;2.38;;;;;;;;;;5035692;28;20096;-69
2023/01/16 13:08:59;;;;;;;2.17;1.80;;;;;;;;;;5036209;28;20538;-70
2023/01/16 13:14:31;;;;;;;2.58;2.28;;;;;;;;;;5036118;28;20520;-70
2023/01/16 13:17:01;;;;;;;3.67;2.20;;;;;;;;;;5055873;28;20492;-69
2023/01/16 13:19:30;;;;;;;4.13;2.88;;;;;;;;;;5057685;28;20515;-69
2023/01/16 13:21:56;;;;;;;4.18;2.35;;;;;;;;;;5069467;28;20049;-71
2023/01/16 13:24:26;;;;;;;2.22;1.92;;;;;;;;;;5062098;28;20542;-69
2023/01/16 13:26:54;;;;;;;6.60;2.22;;;;;;;;;;5080078;28;20091;-68
2023/01/16 13:29:25;;;;;;;3.30;1.83;;;;;;;;;;5062131;28;20060;-69
2023/01/16 13:31:54;;;;;;;2.67;2.08;;;;;;;;;;5057791;28;20045;-69
2023/01/16 13:34:22;;;;;;;4.22;1.70;;;;;;;;;;5062515;28;20053;-69
2023/01/16 13:36:59;;;;;;;2.05;1.55;;;;;;;;;;5062184;28;20554;-70
2023/01/16 13:39:43;;;;;;;4.43;1.75;;;;;;;;;;5062107;28;20495;-70
2023/01/16 13:42:11;;;;;;;2.05;1.70;;;;;;;;;;5059425;28;20059;-68
2023/01/16 13:47:30;;;;;;;2.47;1.50;;;;;;;;;;5063430;28;20108;-69
2023/01/16 13:50:02;;;;;;;1.83;1.40;;;;;;;;;;5061191;28;20049;-70
2023/01/16 13:52:29;;;;;;;3.20;1.70;;;;;;;;;;5062917;28;20063;-70
2023/01/16 13:54:57;;;;;;;1.52;1.35;;;;;;;;;;5063145;28;20144;-69
2023/01/16 13:57:24;;;;;;;2.90;1.50;;;;;;;;;;5063225;28;20158;-69
2023/01/16 13:59:53;;;;;;;1.70;1.60;;;;;;;;;;5062085;28;20049;-69
2023/01/16 14:02:24;;;;;;;1.90;1.70;;;;;;;;;;5063260;28;20147;-70
2023/01/16 14:05:14;;;;;;;1.48;1.38;;;;;;;;;;5060455;28;20045;-70
2023/01/16 14:10:42;;;;;;;2.45;1.90;;;;;;;;;;5056203;28;20140;-70
2023/01/16 14:13:28;;;;;;;1.98;1.58;;;;;;;;;;5072596;28;20135;-69
2023/01/16 14:18:43;;;;;;;2.20;1.30;;;;;;;;;;5064282;28;20057;-67
2023/01/16 14:21:17;;;;;;;2.25;1.55;;;;;;;;;;5075945;28;20049;-69
2023/01/16 14:24:02;;;;;;;3.20;2.85;;;;;;;;;;5065203;28;20110;-68
2023/01/16 14:26:50;;;;;;;2.65;1.50;;;;;;;;;;5062364;28;20128;-70
2023/01/16 14:29:20;;;;;;;3.75;1.88;;;;;;;;;;5065232;28;20423;-70
2023/01/16 14:31:54;;;;;;;2.08;1.50;;;;;;;;;;5061257;28;20088;-71
2023/01/16 14:34:28;;;;;;;3.03;1.55;;;;;;;;;;5065319;28;20061;-69
2023/01/16 14:36:59;;;;;;;3.05;1.60;;;;;;;;;;5061933;28;20442;-68
2023/01/16 14:39:27;;;;;;;3.00;1.67;;;;;;;;;;5067173;28;20060;-68
2023/01/16 14:56:09;;;;;;;;;;;;;;;;;;5066927;28;20152;-70
2023/01/16 14:58:52;;;;;;;3.05;1.83;;;;;;;;;;5063611;28;44733;-70
2023/01/16 15:04:11;;;;;;;5.20;2.03;;;;;;;;;;5062379;28;20065;-68
2023/01/16 15:06:40;;;;;;;1.95;1.77;;;;;;;;;;5068360;28;20075;-70
2023/01/16 15:09:11;;;;;;;3.38;2.58;;;;;;;;;;5065243;28;20056;-70
2023/01/16 15:11:45;;;;;;;3.72;1.60;;;;;;;;;;5064848;28;20512;-70
2023/01/16 15:14:34;;;;;;;1.77;1.65;;;;;;;;;;5061834;28;20059;-69
2023/01/16 15:22:50;;;;;;;3.25;2.10;;;;;;;;;;5065464;28;20055;-70
2023/01/16 15:25:42;;;;;;;2.28;1.88;;;;;;;;;;5073094;28;20048;-70
2023/01/16 15:28:29;;;;;;;2.67;2.17;;;;;;;;;;5064346;28;20088;-70
2023/01/16 15:30:59;;;;;;;4.65;2.40;;;;;;;;;;5058153;28;20757;-70
2023/01/16 15:36:26;;;;;;;3.00;2.20;;;;;;;;;;5061872;28;20423;-70
2023/01/16 15:38:54;;;;;;;3.33;2.50;;;;;;;;;;5065144;28;20055;-70
2023/01/16 15:46:32;;;;;;;2.55;2.30;;;;;;;;;;5063226;28;20045;-71
2023/01/16 15:47:10;;;;;;;4.23;2.60;;;;;;;;;;5063890;28;20533;-70
2023/01/16 15:49:44;;;;;;;3.08;2.72;;;;;;;;;;5064132;28;20077;-71
2023/01/16 15:52:10;;;;;;;3.47;3.17;;;;;;;;;;5080333;28;20045;-68
2023/01/16 15:54:38;;;;;;;3.47;3.17;;;;;;;;;;5065297;28;20049;-68
2023/01/16 15:57:04;;;;;;;3.90;3.53;;;;;;;;;;5065613;28;20517;-71
2023/01/16 15:59:54;;;;;;;3.88;3.00;;;;;;;;;;5062300;28;20045;-68
2023/01/16 16:02:27;;;;;;;3.58;3.28;;;;;;;;;;5063402;28;20057;-70
2023/01/16 16:04:55;;;;;;;6.25;5.63;;;;;;;;;;5062472;28;20068;-68
2023/01/16 16:07:22;;;;;;;3.42;3.10;;;;;;;;;;5062421;28;20041;-69
2023/01/16 16:09:50;;;;;;;3.80;2.90;;;;;;;;;;5063688;28;20507;-71
2023/01/16 16:12:18;;;;;;;4.20;3.40;;;;;;;;;;5059145;28;20351;-69
2023/01/16 16:20:36;;;;;;;4.18;3.65;;;;;;;;;;5064096;28;20056;-70
2023/01/16 16:23:12;;;;;;;4.40;3.20;;;;;;;;;;5079562;28;20103;-68
2023/01/16 16:25:46;;;;;;;5.60;3.78;;;;;;;;;;5063904;28;20128;-71
2023/01/16 16:28:26;;;;;;;3.65;3.25;;;;;;;;;;5064118;28;20045;-67
2023/01/16 16:31:00;;;;;;;4.68;3.38;;;;;;;;;;5062328;28;20045;-70
2023/01/16 16:33:28;;;;;;;4.53;3.75;;;;;;;;;;5059203;28;20107;-70
2023/01/16 16:35:56;;;;;;;4.03;3.38;;;;;;;;;;5063508;28;20128;-70
2023/01/16 16:38:24;;;;;;;6.07;4.07;;;;;;;;;;5063249;28;20056;-67
2023/01/16 16:41:06;;;;;;;5.43;3.85;;;;;;;;;;5060674;28;20060;-70
2023/01/16 16:43:42;;;;;;;3.97;3.55;;;;;;;;;;5062780;28;20569;-68
2023/01/16 16:46:24;;;;;;;4.68;3.72;;;;;;;;;;5064229;28;20049;-70